Time;durP1;ratioP1;P1;durP2;ratioP2;P2;SDS_P1;SDS_P2;PMS_P1;PMS_P2;Temp;Humidity;BMP_temperature;BMP_pressure;BME280_temperature;BME280_humidity;BME280_pressure;Samples;Min_cycle;Max_cycle;Signal;HPM_P1;HPM_P2
2023/08/07 00:01:17;;;;;;;0.20;0.20;;;;;;;17.62;58.29;99558.63;5461554;32;34445;-71
2023/08/07 00:04:19;;;;;;;3.87;0.55;;;;;;;17.71;57.53;99564.06;5454996;32;34574;-69
2023/08/07 00:07:21;;;;;;;0.73;0.43;;;;;;;17.38;58.84;99556.12;5455219;32;34183;-71
2023/08/07 00:10:24;;;;;;;1.10;0.40;;;;;;;17.43;58.90;99561.91;5458393;32;34022;-76
2023/08/07 00:13:26;;;;;;;1.55;0.20;;;;;;;17.41;58.85;99563.84;5453240;32;35318;-75
2023/08/07 00:16:28;;;;;;;0.62;0.40;;;;;;;17.92;57.35;99565.94;5457412;32;35724;-69
2023/08/07 00:19:30;;;;;;;0.40;0.40;;;;;;;17.67;58.30;99562.59;5454925;32;34151;-76
2023/08/07 00:22:33;;;;;;;0.65;0.50;;;;;;;17.51;59.12;99557.66;5456563;32;35037;-75
2023/08/07 00:25:35;;;;;;;0.55;0.40;;;;;;;17.99;57.91;99554.66;5460169;32;34567;-75
2023/08/07 00:28:37;;;;;;;0.40;0.40;;;;;;;17.72;58.29;99560.44;5455052;32;34948;-76
2023/08/07 00:31:39;;;;;;;0.50;0.40;;;;;;;17.73;58.66;99566.59;5453756;32;34257;-70
2023/08/07 00:34:41;;;;;;;2.05;0.40;;;;;;;17.77;58.07;99562.69;5454837;32;34433;-75
2023/08/07 00:37:44;;;;;;;0.53;0.53;;;;;;;18.16;57.31;99573.66;5455193;32;35378;-70
2023/08/07 00:40:46;;;;;;;0.30;0.30;;;;;;;18.11;57.49;99560.78;5458747;32;34817;-71
2023/08/07 00:43:48;;;;;;;1.20;0.37;;;;;;;17.74;58.46;99566.47;5459990;32;35479;-74
2023/08/07 00:46:51;;;;;;;0.80;0.45;;;;;;;18.22;56.30;99568.69;5456088;32;34902;-70
2023/08/07 00:49:53;;;;;;;;;;;;;;;18.00;57.85;99566.97;5447934;32;34580;-72
2023/08/07 00:52:55;;;;;;;0.50;0.30;;;;;;;18.35;57.03;99566.72;5451703;32;34617;-71
2023/08/07 00:55:58;;;;;;;1.90;0.40;;;;;;;18.03;57.87;99569.41;5458069;32;34595;-76
2023/08/07 00:59:00;;;;;;;1.62;0.30;;;;;;;17.87;58.01;99566.31;5437897;32;34258;-72
2023/08/07 01:02:03;;;;;;;0.65;0.40;;;;;;;17.44;59.11;99566.25;5436132;32;34751;-70
2023/08/07 01:05:05;;;;;;;0.52;0.50;;;;;;;18.21;57.27;99561.69;5445813;32;35495;-74
2023/08/07 01:08:08;;;;;;;1.00;0.40;;;;;;;17.92;58.08;99566.78;5454605;32;35126;-70
2023/08/07 01:11:22;;;;;;;0.77;0.32;;;;;;;17.84;58.36;99574.53;5461928;32;34887;-70
2023/08/07 01:14:44;;;;;;;0.63;0.30;;;;;;;17.69;58.72;99568.63;5443351;32;34315;-71
2023/08/07 01:17:47;;;;;;;2.90;0.47;;;;;;;18.03;58.06;99565.87;5437923;32;35830;-75
2023/08/07 01:20:50;;;;;;;;;;;;;;;18.06;57.36;99563.81;5463575;32;34341;-70
2023/08/07 01:23:52;;;;;;;0.40;0.30;;;;;;;17.83;58.26;99564.84;5455037;32;35127;-71
2023/08/07 01:26:55;;;;;;;0.83;0.37;;;;;;;17.67;58.50;99573.22;5461009;32;34727;-75
2023/08/07 01:30:09;;;;;;;1.10;0.30;;;;;;;18.20;56.92;99573.28;5443769;32;34309;-70
2023/08/07 01:33:39;;;;;;;0.30;0.30;;;;;;;18.16;56.91;99576.31;5441397;32;34825;-70
2023/08/07 01:36:42;;;;;;;6.07;0.50;;;;;;;17.77;57.13;99591.94;5446861;32;34730;-73
2023/08/07 01:39:44;;;;;;;0.30;0.30;;;;;;;17.71;57.47;99580.03;5421916;32;34821;-70
2023/08/07 01:42:47;;;;;;;;;;;;;;;17.54;58.01;99581.34;5440248;32;34743;-71
2023/08/07 01:45:49;;;;;;;0.50;0.20;;;;;;;17.75;57.18;99585.91;5432476;32;35400;-71
2023/08/07 01:48:51;;;;;;;0.27;0.20;;;;;;;17.64;57.19;99589.41;5457408;32;35008;-72
2023/08/07 01:51:53;;;;;;;0.20;0.20;;;;;;;18.00;56.29;99588.25;5458736;32;35509;-71
2023/08/07 01:54:55;;;;;;;0.53;0.30;;;;;;;18.41;55.07;99579.47;5457630;32;35098;-71
2023/08/07 01:57:58;;;;;;;0.50;0.30;;;;;;;17.28;57.68;99594.06;5458743;32;34706;-70
2023/08/07 02:01:00;;;;;;;0.10;0.10;;;;;;;17.70;57.04;99582.75;5457450;32;34609;-75
2023/08/07 02:04:02;;;;;;;0.40;0.35;;;;;;;17.24;58.06;99584.63;5457303;32;34785;-70
2023/08/07 02:07:04;;;;;;;0.80;0.70;;;;;;;17.23;57.91;99585.59;5454781;32;35730;-75
2023/08/07 02:10:07;;;;;;;1.23;0.40;;;;;;;17.20;57.64;99585.84;5458843;32;34830;-70
2023/08/07 02:13:09;;;;;;;0.55;0.32;;;;;;;17.13;57.92;99600.59;5452941;32;34850;-70
2023/08/07 02:16:12;;;;;;;0.43;0.23;;;;;;;16.98;58.61;99591.16;5457261;32;34126;-71
2023/08/07 02:19:16;;;;;;;0.40;0.40;;;;;;;17.13;57.99;99594.41;5440711;32;34880;-76
2023/08/07 02:22:19;;;;;;;0.27;0.27;;;;;;;16.89;58.85;99597.19;5452702;32;34739;-70
2023/08/07 02:25:21;;;;;;;1.02;0.30;;;;;;;17.41;57.28;99585.94;5460431;32;34774;-74
2023/08/07 02:28:23;;;;;;;0.73;0.40;;;;;;;18.04;55.66;99595.00;5450181;32;34928;-69
2023/08/07 02:31:25;;;;;;;0.62;0.40;;;;;;;17.49;56.42;99599.47;5433102;32;35137;-74
2023/08/07 02:34:28;;;;;;;2.37;0.50;;;;;;;17.50;57.10;99601.12;5441917;32;34220;-70
2023/08/07 02:37:30;;;;;;;0.62;0.52;;;;;;;17.73;55.97;99604.66;5435747;32;34614;-71
2023/08/07 02:40:33;;;;;;;1.63;0.60;;;;;;;16.85;58.13;99599.22;5461248;32;34168;-74
2023/08/07 02:43:35;;;;;;;1.02;0.40;;;;;;;17.23;57.04;99604.19;5452010;32;34635;-72
2023/08/07 02:46:37;;;;;;;0.50;0.22;;;;;;;17.46;56.74;99599.72;5459107;32;34445;-75
2023/08/07 02:49:39;;;;;;;0.62;0.50;;;;;;;17.65;56.05;99595.59;5439810;32;34316;-74
2023/08/07 02:52:41;;;;;;;0.40;0.40;;;;;;;17.97;55.09;99592.97;5448746;32;34598;-75
2023/08/07 02:55:46;;;;;;;1.63;0.50;;;;;;;17.64;55.82;99601.84;5458680;32;35195;-71
2023/08/07 02:58:49;;;;;;;0.93;0.50;;;;;;;17.33;56.32;99607.81;5452621;32;34672;-74
2023/08/07 03:01:51;;;;;;;2.10;0.47;;;;;;;17.33;56.41;99602.50;5451761;32;34682;-70
2023/08/07 03:04:53;;;;;;;0.57;0.57;;;;;;;17.40;56.38;99602.84;5429154;32;35277;-71
2023/08/07 03:07:55;;;;;;;0.50;0.50;;;;;;;17.36;56.22;99608.53;5442495;32;34645;-70
2023/08/07 03:10:58;;;;;;;0.37;0.37;;;;;;;17.55;55.70;99606.09;5456269;32;35406;-71
2023/08/07 03:14:00;;;;;;;2.78;0.70;;;;;;;16.61;57.55;99601.06;5456991;32;34408;-71
2023/08/07 03:17:02;;;;;;;0.43;0.43;;;;;;;16.95;56.79;99589.59;5460773;32;34682;-74
2023/08/07 03:20:05;;;;;;;1.05;0.75;;;;;;;17.26;55.99;99600.44;5459233;32;34886;-75
2023/08/07 03:23:07;;;;;;;1.12;0.70;;;;;;;16.53;58.48;99591.03;5457986;32;35665;-75
2023/08/07 03:26:12;;;;;;;0.50;0.50;;;;;;;16.71;57.32;99589.69;5456397;32;35383;-75
2023/08/07 03:29:20;;;;;;;5.10;0.73;;;;;;;17.17;56.28;99594.03;5447906;32;34066;-74
2023/08/07 03:32:23;;;;;;;2.22;0.60;;;;;;;16.78;56.73;99603.31;5453598;32;34797;-74
2023/08/07 03:35:25;;;;;;;3.58;1.23;;;;;;;16.76;57.41;99611.41;5445607;32;35965;-74
2023/08/07 03:38:27;;;;;;;0.77;0.70;;;;;;;16.80;56.84;99596.06;5457106;32;34840;-75
2023/08/07 03:41:29;;;;;;;0.70;0.50;;;;;;;16.64;57.57;99595.53;5454845;32;34807;-70
2023/08/07 03:44:33;;;;;;;2.00;0.70;;;;;;;16.53;57.89;99607.81;5461888;32;34552;-70
2023/08/07 03:47:35;;;;;;;1.17;0.40;;;;;;;16.80;57.10;99601.38;5427957;32;35087;-70
2023/08/07 03:50:37;;;;;;;1.35;1.00;;;;;;;16.69;57.20;99615.47;5462087;32;34795;-74
2023/08/07 03:53:39;;;;;;;2.10;0.80;;;;;;;16.48;58.07;99622.38;5455382;32;35466;-75
2023/08/07 03:56:42;;;;;;;1.60;0.70;;;;;;;16.70;57.45;99626.94;5442641;32;34563;-74
2023/08/07 03:59:44;;;;;;;1.23;0.67;;;;;;;16.55;57.66;99633.38;5459439;32;34801;-70
2023/08/07 04:02:46;;;;;;;1.37;0.70;;;;;;;16.27;58.28;99626.66;5451057;32;34817;-72
2023/08/07 04:05:52;;;;;;;1.12;0.70;;;;;;;16.43;57.91;99635.16;5443034;32;35035;-71
2023/08/07 04:08:54;;;;;;;1.10;0.57;;;;;;;16.42;58.05;99628.13;5440431;32;34275;-76
2023/08/07 04:11:56;;;;;;;1.27;0.77;;;;;;;16.62;57.16;99635.47;5454010;32;34292;-76
2023/08/07 04:14:58;;;;;;;2.50;0.80;;;;;;;16.14;58.94;99635.50;5457071;32;34580;-70
2023/08/07 04:18:00;;;;;;;1.13;0.70;;;;;;;16.19;58.63;99629.88;5451287;32;34730;-75
2023/08/07 04:21:03;;;;;;;0.80;0.60;;;;;;;16.78;56.92;99638.66;5448920;32;34920;-74
2023/08/07 04:24:10;;;;;;;2.72;0.70;;;;;;;16.54;57.70;99637.81;5456422;32;34845;-74
2023/08/07 04:27:12;;;;;;;1.83;0.93;;;;;;;16.53;57.67;99644.09;5445059;32;34894;-70
2023/08/07 04:30:14;;;;;;;0.80;0.80;;;;;;;16.94;56.44;99643.66;5458409;32;34631;-70
2023/08/07 04:33:17;;;;;;;2.63;1.30;;;;;;;16.59;57.79;99643.63;5452989;32;34384;-75
2023/08/07 04:36:20;;;;;;;1.87;0.80;;;;;;;17.16;55.99;99658.75;5450483;32;34908;-75
2023/08/07 04:39:23;;;;;;;3.53;1.53;;;;;;;17.28;55.37;99651.63;5431780;32;34797;-69
2023/08/07 04:42:25;;;;;;;3.07;1.00;;;;;;;17.40;54.75;99649.84;5454495;32;35713;-73
2023/08/07 04:45:27;;;;;;;1.55;1.00;;;;;;;17.16;55.65;99661.41;5457878;32;35544;-74
2023/08/07 04:48:29;;;;;;;1.00;0.80;;;;;;;17.32;55.33;99653.94;5454414;32;35273;-76
2023/08/07 04:51:31;;;;;;;1.27;0.80;;;;;;;17.58;53.80;99653.66;5451502;32;34634;-75
2023/08/07 04:54:35;;;;;;;4.33;0.80;;;;;;;17.74;53.64;99646.19;5456649;32;34864;-71
2023/08/07 04:57:38;;;;;;;2.00;0.85;;;;;;;17.51;53.90;99642.69;5452031;32;34573;-75
2023/08/07 05:00:40;;;;;;;2.93;1.20;;;;;;;18.46;51.50;99642.94;5457007;32;34750;-76
2023/08/07 05:03:42;;;;;;;1.80;1.00;;;;;;;18.29;52.00;99644.38;5441427;32;34264;-75
2023/08/07 05:06:45;;;;;;;7.03;0.98;;;;;;;18.61;51.16;99648.78;5451078;32;34624;-76
2023/08/07 05:09:49;;;;;;;5.45;1.05;;;;;;;18.48;50.91;99643.66;5446348;32;34701;-76
2023/08/07 05:12:57;;;;;;;11.80;3.53;;;;;;;19.08;49.53;99638.62;5447885;32;34742;-75
2023/08/07 05:15:59;;;;;;;3.33;1.20;;;;;;;19.13;49.44;99644.41;5455148;32;34032;-75
2023/08/07 05:19:02;;;;;;;1.77;0.90;;;;;;;19.76;46.96;99634.41;5455600;32;35096;-70
2023/08/07 05:22:04;;;;;;;2.87;0.93;;;;;;;20.35;46.16;99632.66;5435168;32;35156;-75
2023/08/07 05:25:06;;;;;;;3.08;1.17;;;;;;;19.59;47.06;99643.94;5459537;32;35582;-76
2023/08/07 05:28:09;;;;;;;3.30;0.80;;;;;;;20.38;45.07;99643.91;5446246;32;34240;-71
2023/08/07 05:31:11;;;;;;;4.07;0.80;;;;;;;19.48;45.97;99644.81;5457420;32;34825;-76
2023/08/07 05:34:13;;;;;;;2.65;0.80;;;;;;;20.54;44.46;99638.88;5447671;32;34866;-75
2023/08/07 05:37:15;;;;;;;1.00;0.60;;;;;;;20.04;44.54;99640.81;5442868;32;34273;-71
2023/08/07 05:40:17;;;;;;;2.00;1.00;;;;;;;20.33;43.83;99661.31;5457068;32;34306;-66
2023/08/07 05:43:20;;;;;;;2.50;0.65;;;;;;;21.06;42.76;99666.06;5448998;32;34655;-76
2023/08/07 05:46:22;;;;;;;1.17;0.90;;;;;;;20.85;42.76;99668.06;5449700;32;35469;-74
2023/08/07 05:49:24;;;;;;;0.80;0.77;;;;;;;19.88;45.34;99670.66;5445716;32;34175;-74
2023/08/07 05:52:27;;;;;;;1.47;0.90;;;;;;;18.97;47.24;99670.66;5452304;32;34451;-63
2023/08/07 05:55:30;;;;;;;4.50;1.23;;;;;;;19.08;46.95;99675.91;5448800;32;34130;-71
2023/08/07 05:58:34;;;;;;;3.23;0.80;;;;;;;19.12;47.11;99685.31;5447065;32;35285;-77
2023/08/07 06:01:37;;;;;;;3.55;1.27;;;;;;;18.84;47.57;99682.34;5455159;32;34647;-78
2023/08/07 06:04:40;;;;;;;1.50;0.88;;;;;;;18.79;47.84;99702.31;5446857;32;34660;-68
2023/08/07 06:07:43;;;;;;;2.73;1.00;;;;;;;18.52;48.98;99702.78;5455317;32;35338;-65
2023/08/07 06:10:45;;;;;;;2.00;0.90;;;;;;;18.80;47.79;99707.53;5454022;32;34638;-65
2023/08/07 06:13:48;;;;;;;4.00;1.00;;;;;;;18.95;47.77;99713.38;5448219;32;34908;-81
2023/08/07 06:16:51;;;;;;;2.00;0.90;;;;;;;18.85;47.39;99721.28;5452797;32;35026;-64
2023/08/07 06:19:54;;;;;;;0.83;0.80;;;;;;;19.36;47.00;99730.31;5448226;32;34677;-89
2023/08/07 06:22:56;;;;;;;3.08;1.00;;;;;;;19.77;45.45;99728.56;5452965;32;35156;-65
2023/08/07 06:25:58;;;;;;;2.25;0.85;;;;;;;20.04;44.76;99735.97;5449645;32;34565;-65
2023/08/07 06:29:00;;;;;;;4.35;1.00;;;;;;;19.64;46.05;99737.66;5455222;32;34130;-92
2023/08/07 06:32:06;;;;;;;2.62;1.10;;;;;;;19.82;44.82;99731.69;5450528;32;34597;-66
2023/08/07 06:35:09;;;;;;;1.40;0.70;;;;;;;20.06;45.04;99740.19;5439815;32;35575;-83
2023/08/07 06:38:11;;;;;;;2.78;0.88;;;;;;;19.83;44.92;99755.53;5445337;32;34142;-74
2023/08/07 06:41:16;;;;;;;1.47;0.70;;;;;;;19.17;46.22;99750.53;5448480;32;36861;-66
2023/08/07 06:44:18;;;;;;;1.87;1.20;;;;;;;19.40;46.82;99756.56;5454511;32;34551;-90
2023/08/07 06:47:20;;;;;;;2.75;0.70;;;;;;;19.23;46.47;99761.66;5453159;32;35030;-66
2023/08/07 06:50:24;;;;;;;0.98;0.70;;;;;;;18.48;47.84;99775.84;5434686;32;36084;-68
2023/08/07 06:53:26;;;;;;;1.93;1.20;;;;;;;18.98;47.18;99757.53;5448890;32;34748;-68
2023/08/07 06:56:29;;;;;;;2.60;0.80;;;;;;;18.67;47.19;99758.25;5451060;32;35325;-68
2023/08/07 06:59:31;;;;;;;4.62;1.48;;;;;;;18.47;47.95;99771.50;5454841;32;34857;-88
2023/08/07 07:02:34;;;;;;;4.62;1.60;;;;;;;19.28;46.07;99762.94;5425818;32;34013;-66
2023/08/07 07:05:38;;;;;;;1.73;0.77;;;;;;;19.04;46.36;99757.03;5451237;32;33936;-67
2023/08/07 07:08:41;;;;;;;1.62;0.80;;;;;;;19.65;44.94;99762.50;5448487;32;34707;-83
2023/08/07 07:11:43;;;;;;;1.95;1.00;;;;;;;19.10;46.22;99767.16;5453145;32;35312;-82
2023/08/07 07:14:45;;;;;;;3.05;0.62;;;;;;;18.84;46.36;99764.03;5422269;32;34290;-76
2023/08/07 07:17:48;;;;;;;3.35;0.80;;;;;;;19.37;44.40;99756.81;5435157;32;36279;-74
2023/08/07 07:21:00;;;;;;;1.55;1.10;;;;;;;19.05;45.28;99767.53;5452205;32;34117;-67
2023/08/07 07:24:03;;;;;;;1.85;0.98;;;;;;;19.44;45.14;99762.47;5423439;32;35576;-67
2023/08/07 07:27:05;;;;;;;0.98;0.65;;;;;;;19.39;45.51;99760.22;5427220;32;35759;-75
2023/08/07 07:30:08;;;;;;;3.30;0.60;;;;;;;19.43;45.54;99766.97;5447708;32;34161;-67
2023/08/07 07:33:10;;;;;;;3.50;2.53;;;;;;;19.77;43.70;99776.56;5437986;32;34072;-68
2023/08/07 07:36:17;;;;;;;1.50;0.93;;;;;;;20.15;43.75;99779.37;5422341;32;34001;-91
2023/08/07 07:39:20;;;;;;;0.50;0.50;;;;;;;20.47;43.17;99789.88;5434310;32;34130;-65
2023/08/07 07:42:23;;;;;;;1.20;0.90;;;;;;;19.74;43.65;99772.34;5449351;32;34010;-76
2023/08/07 07:45:25;;;;;;;0.90;0.70;;;;;;;20.45;43.00;99786.50;5401201;32;36655;-67
2023/08/07 07:48:27;;;;;;;1.02;0.50;;;;;;;20.03;42.24;99791.16;5405739;32;34065;-69
2023/08/07 07:51:32;;;;;;;0.43;0.43;;;;;;;20.73;41.68;99792.03;5404972;32;35539;-86
2023/08/07 07:54:35;;;;;;;2.50;0.55;;;;;;;21.85;38.80;99799.38;5406107;32;35674;-82
2023/08/07 07:57:37;;;;;;;4.47;0.50;;;;;;;21.84;39.44;99800.38;5406431;32;34119;-86
2023/08/07 08:00:39;;;;;;;;;;;;;;;22.98;36.73;99795.53;5409989;32;34198;-77
2023/08/07 08:03:43;;;;;;;1.07;0.93;;;;;;;23.05;35.94;99793.91;5415335;32;34010;-64
2023/08/07 08:06:48;;;;;;;2.90;0.60;;;;;;;21.89;37.79;99810.63;5414455;32;33024;-79
2023/08/07 08:09:50;;;;;;;2.43;0.60;;;;;;;21.65;38.58;99804.94;5421924;32;34135;-68
2023/08/07 08:12:56;;;;;;;2.05;0.80;;;;;;;20.96;40.88;99825.50;5412040;32;34130;-85
2023/08/07 08:15:58;;;;;;;0.80;0.70;;;;;;;21.72;39.27;99817.59;5418124;32;33257;-81
2023/08/07 08:19:00;;;;;;;2.03;0.50;;;;;;;22.05;38.81;99828.72;5420992;32;35347;-74
2023/08/07 08:22:03;;;;;;;3.47;0.40;;;;;;;20.75;40.44;99833.66;5413234;32;34337;-74
2023/08/07 08:25:06;;;;;;;1.73;0.77;;;;;;;20.61;41.18;99834.06;5417178;32;34114;-80
2023/08/07 08:28:08;;;;;;;0.50;0.50;;;;;;;21.20;40.55;99834.94;5415802;32;35257;-90
2023/08/07 08:31:11;;;;;;;1.65;0.60;;;;;;;20.74;41.56;99844.47;5411826;32;35018;-77
2023/08/07 08:34:13;;;;;;;0.90;0.50;;;;;;;20.57;41.30;99845.97;5411705;32;33972;-81
2023/08/07 08:37:15;;;;;;;1.55;0.43;;;;;;;20.28;42.08;99852.03;5413295;32;34886;-80
2023/08/07 08:40:19;;;;;;;0.30;0.30;;;;;;;19.36;43.71;99847.56;5415737;32;35357;-68
2023/08/07 08:43:21;;;;;;;2.90;0.60;;;;;;;20.81;40.83;99859.81;5416654;32;34503;-69
2023/08/07 08:46:24;;;;;;;3.62;1.40;;;;;;;20.49;41.19;99844.00;5406712;32;34907;-84
2023/08/07 08:49:32;;;;;;;2.13;0.63;;;;;;;21.48;40.12;99857.31;5402886;32;34403;-83
2023/08/07 08:52:37;;;;;;;8.00;3.30;;;;;;;20.56;41.41;99854.97;5411416;32;37864;-78
2023/08/07 08:55:42;;;;;;;1.80;0.60;;;;;;;20.46;41.92;99870.94;5408915;32;34178;-77
2023/08/07 08:58:45;;;;;;;0.60;0.50;;;;;;;20.59;40.93;99875.19;5397114;32;36360;-79
2023/08/07 09:01:49;;;;;;;2.10;0.68;;;;;;;19.77;42.77;99877.88;5404569;32;34216;-71
2023/08/07 09:04:51;;;;;;;2.80;0.70;;;;;;;19.68;43.38;99880.34;5392304;32;35676;-67
2023/08/07 09:07:53;;;;;;;1.20;0.50;;;;;;;20.62;41.76;99873.13;5415743;32;34353;-67
2023/08/07 09:10:56;;;;;;;9.30;0.85;;;;;;;20.72;41.34;99873.13;5417152;32;35184;-76
2023/08/07 09:14:00;;;;;;;6.45;1.67;;;;;;;20.96;40.96;99878.09;5408415;32;34561;-79
2023/08/07 09:17:03;;;;;;;1.97;0.43;;;;;;;20.69;41.59;99881.41;5389617;32;35232;-65
2023/08/07 09:20:13;;;;;;;2.70;0.50;;;;;;;20.79;40.83;99874.25;5406933;32;34096;-77
2023/08/07 09:23:19;;;;;;;0.90;0.60;;;;;;;21.05;41.18;99880.75;5418600;32;34452;-77
2023/08/07 09:26:25;;;;;;;2.73;0.70;;;;;;;21.05;40.51;99883.44;5406109;32;34485;-75
2023/08/07 09:29:28;;;;;;;0.77;0.20;;;;;;;21.91;39.16;99883.56;5413405;32;34413;-70
2023/08/07 09:32:30;;;;;;;;;;;;;;;23.05;36.93;99879.66;5399134;32;35249;-77
2023/08/07 09:35:33;;;;;;;0.55;0.50;;;;;;;22.69;38.24;99876.09;5406323;32;35770;-68
2023/08/07 09:38:36;;;;;;;4.07;0.82;;;;;;;22.78;37.44;99874.31;5411782;32;35913;-67
2023/08/07 09:41:38;;;;;;;0.35;0.25;;;;;;;22.80;36.99;99881.25;5412021;32;34312;-67
2023/08/07 09:44:44;;;;;;;4.03;0.40;;;;;;;23.69;35.45;99883.09;5402945;32;34396;-74
2023/08/07 09:47:47;;;;;;;3.10;0.68;;;;;;;24.08;34.70;99894.28;5407803;32;34202;-75
2023/08/07 09:50:50;;;;;;;1.65;0.35;;;;;;;24.14;33.90;99892.78;5401306;32;35929;-67
2023/08/07 09:53:52;;;;;;;2.12;0.60;;;;;;;23.01;35.53;99902.41;5412356;32;34273;-74
2023/08/07 09:56:55;;;;;;;0.50;0.50;;;;;;;21.91;37.88;99910.31;5400011;32;34159;-68
2023/08/07 10:00:00;;;;;;;0.57;0.28;;;;;;;21.86;38.52;99920.59;5403994;32;34105;-78
2023/08/07 10:03:03;;;;;;;1.15;0.73;;;;;;;21.95;38.05;99911.69;5401772;32;35558;-75
2023/08/07 10:06:06;;;;;;;1.10;0.40;;;;;;;21.63;39.20;99915.53;5402975;32;34178;-69
2023/08/07 10:09:08;;;;;;;7.50;1.20;;;;;;;21.30;40.72;99919.50;5396006;32;34983;-68
2023/08/07 10:12:11;;;;;;;0.77;0.52;;;;;;;22.94;37.61;99917.44;5416191;32;34165;-77
2023/08/07 10:15:14;;;;;;;;;;;;;;;23.47;36.63;99911.25;5415831;32;35267;-75
2023/08/07 10:18:16;;;;;;;3.78;0.70;;;;;;;23.19;36.65;99916.69;5407472;32;34794;-70
2023/08/07 10:21:19;;;;;;;3.95;0.75;;;;;;;22.78;37.63;99912.66;5401076;32;34692;-72
2023/08/07 10:24:22;;;;;;;2.43;0.70;;;;;;;21.92;38.24;99929.88;5400420;32;35892;-74
2023/08/07 10:27:26;;;;;;;1.37;0.47;;;;;;;22.55;37.29;99931.00;5414319;32;34392;-77
2023/08/07 10:30:29;;;;;;;2.23;0.57;;;;;;;22.13;37.36;99928.72;5396481;32;34021;-78
2023/08/07 10:33:32;;;;;;;2.17;1.27;;;;;;;20.75;40.20;99929.78;5400275;32;34941;-68
2023/08/07 10:36:35;;;;;;;0.65;0.43;;;;;;;22.16;38.60;99923.09;5394015;32;34090;-75
2023/08/07 10:40:01;;;;;;;0.53;0.53;;;;;;;22.51;36.98;99937.63;5407982;32;34822;-77
2023/08/07 10:43:07;;;;;;;1.77;0.30;;;;;;;21.55;39.03;99927.94;5385887;32;34120;-76
2023/08/07 10:46:12;;;;;;;1.60;0.40;;;;;;;21.45;38.80;99935.97;5404785;32;34958;-75
2023/08/07 10:49:32;;;;;;;1.53;0.40;;;;;;;21.28;39.10;99950.00;5439370;32;34291;-78
2023/08/07 10:52:38;;;;;;;2.23;0.70;;;;;;;20.36;41.05;99944.78;5429670;32;34121;-69
2023/08/07 10:55:45;;;;;;;3.03;0.60;;;;;;;20.65;41.27;99936.06;5414041;32;33984;-69
2023/08/07 10:58:53;;;;;;;3.07;1.03;;;;;;;20.88;40.50;99937.56;5437005;32;32635;-71
2023/08/07 11:01:55;;;;;;;3.23;0.53;;;;;;;21.27;40.65;99940.28;5435336;32;34740;-71
2023/08/07 11:04:57;;;;;;;0.90;0.40;;;;;;;20.72;42.12;99953.22;5437299;32;34675;-73
2023/08/07 11:08:00;;;;;;;2.37;0.65;;;;;;;20.64;42.85;99945.91;5435666;32;34699;-73
2023/08/07 11:11:05;;;;;;;4.17;0.60;;;;;;;21.25;42.51;99961.81;5410633;32;35346;-69
2023/08/07 11:14:18;;;;;;;0.70;0.23;;;;;;;20.36;43.59;99976.81;5421103;32;32941;-70
2023/08/07 11:17:21;;;;;;;5.12;1.17;;;;;;;19.75;44.06;99976.66;5435933;32;35618;-75
2023/08/07 11:20:25;;;;;;;11.50;1.25;;;;;;;19.77;44.88;99958.72;5420291;32;35015;-74
2023/08/07 11:23:28;;;;;;;3.43;0.43;;;;;;;19.83;45.21;99963.53;5437362;32;34648;-73
2023/08/07 11:26:30;;;;;;;;;;;;;;;21.77;40.86;99950.91;5431777;32;33938;-72
2023/08/07 11:29:33;;;;;;;1.20;0.33;;;;;;;21.94;40.63;99955.50;5433859;32;34187;-71
2023/08/07 11:32:36;;;;;;;4.28;0.50;;;;;;;22.80;38.65;99958.06;5417786;32;34080;-72
2023/08/07 11:35:42;;;;;;;2.20;0.52;;;;;;;21.42;40.31;99971.00;5424992;32;36465;-68
2023/08/07 11:38:44;;;;;;;0.95;0.40;;;;;;;22.68;37.90;99960.12;5429218;32;34128;-73
2023/08/07 11:41:47;;;;;;;;;;;;;;;23.48;36.64;99961.19;5424694;32;34219;-70
2023/08/07 11:44:49;;;;;;;0.82;0.60;;;;;;;23.92;35.52;99972.00;5438159;32;34255;-77
2023/08/07 11:47:55;;;;;;;;;;;;;;;22.15;38.29;99952.66;5424937;32;34774;-70
2023/08/07 11:50:59;;;;;;;0.77;0.55;;;;;;;22.79;37.79;99961.72;5425049;32;34355;-70
2023/08/07 11:54:02;;;;;;;5.32;0.90;;;;;;;23.47;36.82;99965.72;5430703;32;34107;-76
2023/08/07 11:57:17;;;;;;;1.23;0.55;;;;;;;22.57;38.83;99974.53;5437405;32;34205;-75
2023/08/07 12:00:20;;;;;;;3.42;0.98;;;;;;;23.10;38.61;99970.34;5437500;32;34373;-67
2023/08/07 12:03:30;;;;;;;3.97;0.95;;;;;;;21.15;41.25;99978.81;5442397;32;34186;-70
2023/08/07 12:06:34;;;;;;;2.00;1.10;;;;;;;21.22;42.05;99985.28;5437305;32;34607;-71
2023/08/07 12:09:37;;;;;;;1.33;0.70;;;;;;;20.69;43.50;99970.37;5433678;32;33325;-67
2023/08/07 12:12:39;;;;;;;1.70;0.53;;;;;;;21.84;41.53;99984.09;5426724;32;34639;-69
2023/08/07 12:15:42;;;;;;;1.65;0.70;;;;;;;21.73;41.55;99985.09;5428398;32;34204;-72
2023/08/07 12:18:51;;;;;;;1.93;0.73;;;;;;;21.94;41.13;99971.56;5437564;32;35053;-77
2023/08/07 12:21:53;;;;;;;3.47;0.65;;;;;;;23.84;37.82;99970.13;5438333;32;34511;-71
2023/08/07 12:24:56;;;;;;;1.83;0.77;;;;;;;24.06;37.46;99960.72;5438771;32;35420;-77
2023/08/07 12:27:58;;;;;;;0.82;0.52;;;;;;;24.16;36.48;99968.69;5434100;32;34560;-75
2023/08/07 12:31:00;;;;;;;1.92;0.40;;;;;;;24.37;35.82;99966.47;5422639;32;34051;-70
2023/08/07 12:34:05;;;;;;;1.02;0.90;;;;;;;22.31;39.29;99977.00;5435006;32;35369;-80
2023/08/07 12:37:10;;;;;;;2.50;0.68;;;;;;;22.14;40.01;99977.75;5435130;32;36738;-72
2023/08/07 12:40:20;;;;;;;0.70;0.50;;;;;;;22.39;39.00;99995.00;5428014;32;35650;-69
2023/08/07 12:43:29;;;;;;;1.07;0.57;;;;;;;22.03;39.79;99989.44;5428884;32;34514;-78
2023/08/07 12:46:34;;;;;;;3.23;0.80;;;;;;;20.71;42.23;99995.13;5439507;32;34189;-70
2023/08/07 12:49:41;;;;;;;1.47;0.70;;;;;;;20.45;43.36;99989.38;5443041;32;34265;-78
2023/08/07 12:52:44;;;;;;;1.25;1.00;;;;;;;20.33;43.68;100000.22;5409708;32;34520;-73
2023/08/07 12:55:49;;;;;;;4.22;0.60;;;;;;;20.26;44.61;100002.56;5436435;32;34488;-71
2023/08/07 12:58:51;;;;;;;3.50;0.47;;;;;;;19.83;44.91;100006.19;5417890;32;35212;-73
2023/08/07 13:01:54;;;;;;;0.73;0.60;;;;;;;20.06;44.61;100014.94;5433833;32;34080;-69
2023/08/07 13:04:57;;;;;;;2.72;1.00;;;;;;;19.45;46.17;100012.88;5428962;32;35967;-73
2023/08/07 13:08:01;;;;;;;0.93;0.40;;;;;;;19.26;46.84;100017.16;5434471;32;34793;-76
2023/08/07 13:11:04;;;;;;;0.53;0.40;;;;;;;18.90;46.96;100027.97;5412623;32;35277;-77
2023/08/07 13:14:07;;;;;;;1.90;0.37;;;;;;;19.15;47.32;100015.34;5434290;32;35720;-68
2023/08/07 13:17:09;;;;;;;1.70;0.62;;;;;;;18.72;47.79;100033.91;5430816;32;35219;-72
2023/08/07 13:20:13;;;;;;;4.07;0.77;;;;;;;18.87;47.55;100036.22;5422670;32;34003;-69
2023/08/07 13:23:16;;;;;;;1.33;0.57;;;;;;;19.38;46.37;100032.12;5422368;32;34106;-75
2023/08/07 13:26:18;;;;;;;1.10;0.70;;;;;;;19.37;46.45;100036.63;5435330;32;35119;-68
2023/08/07 13:29:21;;;;;;;1.80;0.68;;;;;;;19.23;47.07;100028.91;5439578;32;34414;-76
2023/08/07 13:32:25;;;;;;;1.37;0.80;;;;;;;19.40;46.76;100035.53;5441736;32;34237;-79
2023/08/07 13:35:27;;;;;;;2.13;0.70;;;;;;;18.85;47.98;100026.63;5434829;32;36039;-79
2023/08/07 13:38:29;;;;;;;1.60;0.70;;;;;;;19.12;47.07;100050.22;5441522;32;35813;-70
2023/08/07 13:41:32;;;;;;;3.03;0.37;;;;;;;18.47;48.56;100042.91;5436360;32;34136;-76
2023/08/07 13:44:34;;;;;;;2.25;0.70;;;;;;;18.60;48.59;100041.81;5439239;32;34093;-71
2023/08/07 13:47:37;;;;;;;4.90;0.88;;;;;;;19.01;48.03;100043.09;5399056;32;35713;-73
2023/08/07 13:50:40;;;;;;;1.83;0.68;;;;;;;18.99;48.38;100050.34;5431196;32;34266;-75
2023/08/07 13:53:43;;;;;;;0.50;0.47;;;;;;;18.65;48.85;100065.44;5434548;32;34789;-80
2023/08/07 13:56:45;;;;;;;0.85;0.60;;;;;;;18.17;50.45;100065.59;5433013;32;34334;-82
2023/08/07 13:59:48;;;;;;;4.62;1.30;;;;;;;18.87;48.56;100065.50;5440900;32;35207;-73
2023/08/07 14:02:52;;;;;;;2.67;0.90;;;;;;;18.80;48.86;100066.91;5422021;32;34887;-75
2023/08/07 14:05:55;;;;;;;1.67;0.90;;;;;;;18.61;49.60;100069.28;5415603;32;34250;-76
2023/08/07 14:08:57;;;;;;;1.50;0.80;;;;;;;19.20;48.12;100074.44;5439550;32;34155;-70
2023/08/07 14:12:01;;;;;;;1.33;0.90;;;;;;;18.74;49.50;100078.06;5430932;32;35609;-74
2023/08/07 14:15:05;;;;;;;0.75;0.62;;;;;;;18.66;49.42;100080.44;5431713;32;277048;-72
2023/08/07 14:18:07;;;;;;;0.77;0.60;;;;;;;18.87;49.50;100099.25;5414293;32;34190;-78
2023/08/07 14:21:10;;;;;;;1.23;0.60;;;;;;;18.58;50.02;100090.84;5407816;32;34329;-70
2023/08/07 14:24:12;;;;;;;2.25;1.00;;;;;;;18.98;48.97;100101.06;5420084;32;34059;-75